createdAt,value
2022-12-24T00:02:24.090Z,93.98
2022-12-24T00:04:55.672Z,93.98
2022-12-24T00:07:28.282Z,93.79
2022-12-24T00:09:56.179Z,94.01
2022-12-24T00:12:24.815Z,93.98
2022-12-24T00:14:52.715Z,94.14
2022-12-24T00:17:22.036Z,94.06
2022-12-24T00:19:49.897Z,93.98
2022-12-24T00:22:18.512Z,93.79
2022-12-24T00:24:46.392Z,94.08
2022-12-24T00:27:14.518Z,93.77
2022-12-24T00:29:42.367Z,92.66
2022-12-24T00:32:10.657Z,92.39
2022-12-24T00:34:40.166Z,92.16
2022-12-24T00:37:09.130Z,92.52
2022-12-24T00:39:37.472Z,92.85
2022-12-24T00:42:05.645Z,92.38
2022-12-24T00:44:33.534Z,92.57
2022-12-24T00:47:03.467Z,91.33
2022-12-24T00:49:34.668Z,92.39
2022-12-24T00:52:04.265Z,92.36
2022-12-24T00:54:32.328Z,92.37
2022-12-24T00:57:00.201Z,92.48
2022-12-24T00:59:28.055Z,92.61
2022-12-24T01:01:56.023Z,92.91
2022-12-24T01:04:41.374Z,93.11
2022-12-24T01:07:10.629Z,93.27
2022-12-24T01:09:38.488Z,93.62
2022-12-24T01:12:06.530Z,93.48
2022-12-24T01:14:34.453Z,93.35
2022-12-24T01:17:02.288Z,94.02
2022-12-24T01:19:30.161Z,94.13
2022-12-24T01:21:59.195Z,94.08
2022-12-24T01:24:28.996Z,93.65
2022-12-24T01:26:56.855Z,94.21
2022-12-24T01:29:24.758Z,93.71
2022-12-24T01:31:52.731Z,93.29
2022-12-24T01:34:20.587Z,93.66
2022-12-24T01:36:48.444Z,93.83
2022-12-24T01:39:16.328Z,93.21
2022-12-24T01:42:02.844Z,94.11
2022-12-24T01:44:36.462Z,93.02
2022-12-24T01:47:11.556Z,93.21
2022-12-24T01:49:42.270Z,93.27
2022-12-24T01:52:14.067Z,93.21
2022-12-24T01:54:45.182Z,93.29
2022-12-24T01:57:19.833Z,93.63
2022-12-24T01:59:51.533Z,93.78
2022-12-24T02:02:20.378Z,94.89
2022-12-24T02:04:55.753Z,93.36
2022-12-24T02:07:23.871Z,93.20
2022-12-24T02:09:57.184Z,92.95
2022-12-24T02:12:27.548Z,93.48
2022-12-24T02:14:56.077Z,93.23
2022-12-24T02:17:31.506Z,93.24
2022-12-24T02:20:34.777Z,93.38
2022-12-24T02:23:27.482Z,93.94
2022-12-24T02:26:08.397Z,94.88
2022-12-24T02:28:54.693Z,95.43
2022-12-24T02:31:28.745Z,96.45
2022-12-24T02:34:03.304Z,97.41
2022-12-24T02:36:36.172Z,97.08
2022-12-24T02:39:07.346Z,96.13
2022-12-24T02:41:51.817Z,96.08
2022-12-24T02:44:23.454Z,95.11
2022-12-24T02:46:54.211Z,94.75
2022-12-24T02:49:22.238Z,94.49
2022-12-24T02:51:50.049Z,94.44
2022-12-24T02:54:19.039Z,93.03
2022-12-24T02:57:00.935Z,93.87
2022-12-24T02:59:58.535Z,92.75
2022-12-24T03:02:42.246Z,93.72
2022-12-24T03:05:19.778Z,94.01
2022-12-24T03:07:59.767Z,94.22
2022-12-24T03:10:34.051Z,94.52
2022-12-24T03:13:07.063Z,93.65
2022-12-24T03:15:35.954Z,93.87
2022-12-24T03:18:08.481Z,94.11
2022-12-24T03:20:39.542Z,93.66
2022-12-24T03:23:07.864Z,93.45
2022-12-24T03:25:39.590Z,93.74
2022-12-24T03:28:10.568Z,93.95
2022-12-24T03:30:40.945Z,95.34
2022-12-24T03:33:10.429Z,94.72
2022-12-24T03:35:38.252Z,94.99
2022-12-24T03:38:07.139Z,94.25
2022-12-24T03:40:34.992Z,93.87
2022-12-24T03:43:03.345Z,93.61
2022-12-24T03:45:31.275Z,93.38
2022-12-24T03:47:59.128Z,92.98
2022-12-24T03:50:28.299Z,92.99
2022-12-24T03:52:56.795Z,93.43
2022-12-24T03:55:24.645Z,93.56
2022-12-24T03:57:52.595Z,93.60
2022-12-24T04:00:21.485Z,94.67
2022-12-24T04:02:49.656Z,95.28
2022-12-24T04:05:20.337Z,94.94
2022-12-24T04:07:49.802Z,94.48
2022-12-24T04:10:17.953Z,96.26
2022-12-24T04:12:45.827Z,95.19
2022-12-24T04:15:13.653Z,95.85
2022-12-24T04:17:41.443Z,95.18
2022-12-24T04:20:10.467Z,94.96
2022-12-24T04:22:38.308Z,94.29
2022-12-24T04:25:09.112Z,95.11
2022-12-24T04:27:36.972Z,95.10
2022-12-24T04:30:05.859Z,94.86
2022-12-24T04:32:33.709Z,95.45
2022-12-24T04:35:01.527Z,94.51
2022-12-24T04:37:29.350Z,94.11
2022-12-24T04:39:57.197Z,94.91
2022-12-24T04:42:26.393Z,94.55
2022-12-24T04:44:54.249Z,93.93
2022-12-24T04:47:22.431Z,94.44
2022-12-24T04:49:50.569Z,94.17
2022-12-24T04:52:18.496Z,93.98
2022-12-24T04:54:46.278Z,93.79
2022-12-24T04:57:14.129Z,93.32
2022-12-24T04:59:43.343Z,93.31
2022-12-24T05:02:11.821Z,93.29
2022-12-24T05:04:39.981Z,92.89
2022-12-24T05:07:07.824Z,92.61
2022-12-24T05:09:35.823Z,92.66
2022-12-24T05:12:03.825Z,92.43
2022-12-24T05:14:31.679Z,92.92
2022-12-24T05:17:00.978Z,92.14
2022-12-24T05:19:28.998Z,92.17
2022-12-24T05:22:10.743Z,91.97
2022-12-24T05:24:56.059Z,92.07
2022-12-24T05:27:24.042Z,92.21
2022-12-24T05:29:51.951Z,92.42
2022-12-24T05:32:21.185Z,93.10
2022-12-24T05:34:48.983Z,92.81
2022-12-24T05:37:16.775Z,92.28
2022-12-24T05:39:44.671Z,92.56
2022-12-24T05:42:12.558Z,92.10
2022-12-24T05:44:40.399Z,92.48
2022-12-24T05:47:08.271Z,92.58
2022-12-24T05:49:37.460Z,93.22
2022-12-24T05:52:06.080Z,93.18
2022-12-24T05:54:33.889Z,93.66
2022-12-24T05:57:01.739Z,93.29
2022-12-24T05:59:30.069Z,93.61
2022-12-24T06:01:58.118Z,93.55
2022-12-24T06:04:29.000Z,93.12
2022-12-24T06:06:58.677Z,93.48
2022-12-24T06:09:26.567Z,93.47
2022-12-24T06:11:54.437Z,93.00
2022-12-24T06:14:22.289Z,93.58
2022-12-24T06:16:50.101Z,93.40
2022-12-24T06:19:17.937Z,93.09
2022-12-24T06:21:45.743Z,93.17
2022-12-24T06:24:15.477Z,93.20
2022-12-24T06:26:43.329Z,93.36
2022-12-24T06:29:11.667Z,93.24
2022-12-24T06:31:39.757Z,93.89
2022-12-24T06:34:07.715Z,93.08
2022-12-24T06:36:35.609Z,93.70
2022-12-24T06:39:03.465Z,93.65
2022-12-24T06:41:32.913Z,93.63
2022-12-24T06:44:01.087Z,93.81
2022-12-24T06:46:29.407Z,94.11
2022-12-24T06:48:57.221Z,94.30
2022-12-24T06:51:25.015Z,94.14
2022-12-24T06:53:53.354Z,94.17
2022-12-24T06:56:22.258Z,93.88
2022-12-24T06:58:51.532Z,94.58
2022-12-24T07:01:21.604Z,94.41
2022-12-24T07:03:49.768Z,94.72
2022-12-24T07:06:21.028Z,94.94
2022-12-24T07:08:49.013Z,95.63
2022-12-24T07:11:17.269Z,96.21
2022-12-24T07:13:45.185Z,95.88
2022-12-24T07:16:14.491Z,96.17
2022-12-24T07:18:42.469Z,95.53
2022-12-24T07:21:10.875Z,94.85
2022-12-24T07:23:38.767Z,95.55
2022-12-24T07:26:08.427Z,94.35
2022-12-24T07:28:36.286Z,94.99
2022-12-24T07:31:04.473Z,95.07
2022-12-24T07:33:33.746Z,94.50
2022-12-24T07:36:03.111Z,94.62
2022-12-24T07:38:31.456Z,94.95
2022-12-24T07:40:59.653Z,94.05
2022-12-24T07:43:28.889Z,94.12
2022-12-24T07:45:58.301Z,94.42
2022-12-24T07:48:27.565Z,94.36
2022-12-24T07:50:57.139Z,94.14
2022-12-24T07:53:26.017Z,93.49
2022-12-24T07:55:54.971Z,94.40
2022-12-24T07:58:23.187Z,94.00
2022-12-24T08:00:55.976Z,93.51
2022-12-24T08:03:24.230Z,92.93
2022-12-24T08:05:53.632Z,93.75
2022-12-24T08:08:22.891Z,93.23
2022-12-24T08:10:50.750Z,92.75
2022-12-24T08:13:18.633Z,93.60
2022-12-24T08:15:46.826Z,92.03
2022-12-24T08:18:14.661Z,92.64
2022-12-24T08:20:42.860Z,91.85
2022-12-24T08:23:10.867Z,91.40
2022-12-24T08:25:43.772Z,91.78
2022-12-24T08:28:12.229Z,91.56
2022-12-24T08:30:40.089Z,89.51
2022-12-24T08:33:08.005Z,89.40
2022-12-24T08:35:35.869Z,90.82
2022-12-24T08:38:03.884Z,90.26
2022-12-24T08:40:31.727Z,89.81
2022-12-24T08:43:02.760Z,89.21
2022-12-24T08:45:36.181Z,88.45
2022-12-24T08:48:08.011Z,89.39
2022-12-24T08:50:36.103Z,89.00
2022-12-24T08:53:03.935Z,88.96
2022-12-24T08:55:31.760Z,89.03
2022-12-24T08:58:01.187Z,89.91
2022-12-24T09:00:29.186Z,89.36
2022-12-24T09:02:57.778Z,89.63
2022-12-24T09:05:25.997Z,89.50
2022-12-24T09:07:57.833Z,89.51
2022-12-24T09:10:26.393Z,89.19
2022-12-24T09:12:54.244Z,89.81
2022-12-24T09:15:23.419Z,89.70
2022-12-24T09:17:51.204Z,89.94
2022-12-24T09:20:19.200Z,89.94
2022-12-24T09:22:47.017Z,90.57
2022-12-24T09:25:14.878Z,90.73
2022-12-24T09:27:42.738Z,90.17
2022-12-24T09:30:11.813Z,89.59
2022-12-24T09:32:41.006Z,89.85
2022-12-24T09:35:09.508Z,89.54
2022-12-24T09:37:38.912Z,89.01
2022-12-24T09:40:08.085Z,88.55
2022-12-24T09:42:49.702Z,89.53
2022-12-24T09:45:21.051Z,89.10
2022-12-24T09:47:54.667Z,89.70
2022-12-24T09:50:33.752Z,89.72
2022-12-24T09:53:05.710Z,90.13
2022-12-24T09:55:37.925Z,89.91
2022-12-24T09:58:07.838Z,90.42
2022-12-24T10:00:38.635Z,90.19
2022-12-24T10:03:15.776Z,90.63
2022-12-24T10:05:48.829Z,90.35
2022-12-24T10:08:26.737Z,90.28
2022-12-24T10:10:56.459Z,90.67
2022-12-24T10:13:39.106Z,91.19
2022-12-24T10:16:16.170Z,91.10
2022-12-24T10:18:52.900Z,91.56
2022-12-24T10:21:30.542Z,91.50
2022-12-24T10:24:06.655Z,91.02
2022-12-24T10:26:40.516Z,91.69
2022-12-24T10:29:16.741Z,91.76
2022-12-24T10:31:55.352Z,91.32
2022-12-24T10:34:26.226Z,90.45
2022-12-24T10:36:54.027Z,91.81
2022-12-24T10:39:25.462Z,91.61
2022-12-24T10:41:57.875Z,91.37
2022-12-24T10:44:29.274Z,91.59
2022-12-24T10:46:57.982Z,91.54
2022-12-24T10:49:33.799Z,91.26
2022-12-24T10:52:06.544Z,91.69
2022-12-24T10:54:39.465Z,90.21
2022-12-24T10:57:26.458Z,89.51
2022-12-24T10:59:56.168Z,89.44
2022-12-24T11:02:30.112Z,89.44
2022-12-24T11:05:00.748Z,89.53
2022-12-24T11:07:29.979Z,89.26
2022-12-24T11:09:59.377Z,89.30
2022-12-24T11:12:30.460Z,89.37
2022-12-24T11:15:05.439Z,89.31
2022-12-24T11:17:34.167Z,88.80
2022-12-24T11:20:04.453Z,88.66
2022-12-24T11:22:33.768Z,88.53
2022-12-24T11:25:05.477Z,88.79
2022-12-24T11:27:41.742Z,88.86
2022-12-24T11:30:26.199Z,88.46
2022-12-24T11:33:21.931Z,88.14
2022-12-24T11:36:01.628Z,88.36
2022-12-24T11:38:31.203Z,88.45
2022-12-24T11:41:05.218Z,88.28
2022-12-24T11:43:47.814Z,88.87
2022-12-24T11:46:37.752Z,89.08
2022-12-24T11:49:08.681Z,88.51
2022-12-24T11:51:40.046Z,88.57
2022-12-24T11:54:14.062Z,88.11
2022-12-24T11:56:45.880Z,88.17
2022-12-24T11:59:20.158Z,88.13
2022-12-24T12:01:56.266Z,87.41
2022-12-24T12:04:29.769Z,87.20
2022-12-24T12:07:02.915Z,87.12
2022-12-24T12:09:34.620Z,87.63
2022-12-24T12:12:08.729Z,87.65
2022-12-24T12:14:40.790Z,87.80
2022-12-24T12:17:19.937Z,86.89
2022-12-24T12:19:54.328Z,86.75
2022-12-24T12:22:30.235Z,86.71
2022-12-24T12:25:00.937Z,85.92
2022-12-24T12:27:33.491Z,83.68
2022-12-24T12:30:04.063Z,83.18
2022-12-24T12:32:43.552Z,82.30
2022-12-24T12:35:22.381Z,82.20
2022-12-24T12:37:58.234Z,82.30
2022-12-24T12:40:42.621Z,82.37
2022-12-24T12:43:24.823Z,82.84
2022-12-24T12:45:59.335Z,82.19
2022-12-24T12:48:46.666Z,81.77
2022-12-24T12:51:23.121Z,81.69
2022-12-24T12:54:16.008Z,81.60
2022-12-24T12:56:48.745Z,80.52
2022-12-24T12:59:21.735Z,80.78
2022-12-24T13:02:02.605Z,80.68
2022-12-24T13:04:54.059Z,79.87
2022-12-24T13:07:52.968Z,80.27
2022-12-24T13:10:45.164Z,81.03
2022-12-24T13:13:36.193Z,80.43
2022-12-24T13:16:22.920Z,80.44
2022-12-24T13:19:05.393Z,80.84
2022-12-24T13:21:34.195Z,80.88
2022-12-24T13:24:17.690Z,81.67
2022-12-24T13:27:04.887Z,81.82
2022-12-24T13:29:43.388Z,81.77
2022-12-24T13:32:51.297Z,80.62
2022-12-24T13:35:56.992Z,78.83
2022-12-24T13:38:34.062Z,77.64
2022-12-24T13:41:41.823Z,78.31
2022-12-24T13:44:19.871Z,78.26
2022-12-24T13:46:49.980Z,78.21
2022-12-24T13:49:22.656Z,78.53
2022-12-24T13:51:51.214Z,79.16
2022-12-24T13:54:25.531Z,78.46
2022-12-24T13:56:53.467Z,79.10
2022-12-24T13:59:38.901Z,79.76
2022-12-24T14:02:20.280Z,79.70
2022-12-24T14:04:52.723Z,80.04
2022-12-24T14:07:21.791Z,80.53
2022-12-24T14:09:52.060Z,81.36
2022-12-24T14:12:46.634Z,79.88
2022-12-24T14:16:00.503Z,79.12
2022-12-24T14:18:31.744Z,79.02
2022-12-24T14:21:01.337Z,79.20
2022-12-24T14:23:42.451Z,79.58
2022-12-24T14:26:16.468Z,78.92
2022-12-24T14:28:47.646Z,79.60
2022-12-24T14:31:18.050Z,79.37
2022-12-24T14:33:47.488Z,79.63
2022-12-24T14:36:19.598Z,79.86
2022-12-24T14:38:47.849Z,80.32
2022-12-24T14:41:38.564Z,80.58
2022-12-24T14:44:17.707Z,80.66
2022-12-24T14:46:51.913Z,80.97
2022-12-24T14:49:33.372Z,80.47
2022-12-24T14:52:30.738Z,80.48
2022-12-24T14:54:56.845Z,80.53
2022-12-24T14:57:26.916Z,81.05
2022-12-24T14:59:56.668Z,81.19
2022-12-24T15:02:27.051Z,80.91
2022-12-24T15:05:08.206Z,80.95
2022-12-24T15:07:43.606Z,80.89
2022-12-24T15:10:31.337Z,81.63
2022-12-24T15:13:04.076Z,81.87
2022-12-24T15:15:32.363Z,82.61
2022-12-24T15:18:01.167Z,82.60
2022-12-24T15:20:31.719Z,82.92
2022-12-24T15:23:00.385Z,83.79
2022-12-24T15:25:31.018Z,83.49
2022-12-24T15:27:59.873Z,83.61
2022-12-24T15:30:30.002Z,84.35
2022-12-24T15:32:59.071Z,84.39
2022-12-24T15:35:45.634Z,83.88
2022-12-24T15:38:26.233Z,84.85
2022-12-24T15:40:55.815Z,85.11
2022-12-24T15:43:24.495Z,86.07
2022-12-24T15:45:53.753Z,86.22
2022-12-24T15:48:25.670Z,85.86
2022-12-24T15:50:58.505Z,86.53
2022-12-24T15:53:29.403Z,86.68
2022-12-24T15:56:05.996Z,87.16
2022-12-24T15:58:36.132Z,88.20
2022-12-24T16:01:20.511Z,88.76
2022-12-24T16:03:58.214Z,89.42
2022-12-24T16:06:28.850Z,88.54
2022-12-24T16:08:59.897Z,89.18
2022-12-24T16:11:34.793Z,89.86
2022-12-24T16:14:12.153Z,90.48
2022-12-24T16:16:42.300Z,91.08
2022-12-24T16:19:19.540Z,91.13
2022-12-24T16:21:53.253Z,91.02
2022-12-24T16:24:23.794Z,91.24
2022-12-24T16:26:51.932Z,91.36
2022-12-24T16:29:20.843Z,91.70
2022-12-24T16:31:52.689Z,92.18
2022-12-24T16:34:24.278Z,91.18
2022-12-24T16:36:53.656Z,90.83
2022-12-24T16:39:28.425Z,90.72
2022-12-24T16:42:15.842Z,90.08
2022-12-24T16:44:44.408Z,89.67
2022-12-24T16:47:14.827Z,89.73
2022-12-24T16:49:42.661Z,89.81
2022-12-24T16:52:17.873Z,90.01
2022-12-24T16:54:45.727Z,89.70
2022-12-24T16:57:13.660Z,89.32
2022-12-24T16:59:41.629Z,89.80
2022-12-24T17:02:15.065Z,90.04
2022-12-24T17:04:43.934Z,89.46
2022-12-24T17:07:12.429Z,90.36
2022-12-24T17:09:41.854Z,90.61
2022-12-24T17:12:10.051Z,90.87
2022-12-24T17:14:39.692Z,91.79
2022-12-24T17:17:07.794Z,91.38
2022-12-24T17:19:35.663Z,91.52
2022-12-24T17:22:03.492Z,91.44
2022-12-24T17:24:31.269Z,91.28
2022-12-24T17:27:00.506Z,91.23
2022-12-24T17:29:28.358Z,91.08
2022-12-24T17:31:56.257Z,90.71
2022-12-24T17:34:24.400Z,90.29
2022-12-24T17:36:52.182Z,89.69
2022-12-24T17:39:25.814Z,89.89
2022-12-24T17:41:57.075Z,89.73
2022-12-24T17:44:26.252Z,90.44
2022-12-24T17:46:54.108Z,90.57
2022-12-24T17:49:21.944Z,90.34
2022-12-24T17:51:49.708Z,91.16
2022-12-24T17:54:17.589Z,91.00
2022-12-24T17:56:45.437Z,89.69
2022-12-24T17:59:14.008Z,89.96
2022-12-24T18:01:43.318Z,89.65
2022-12-24T18:04:11.994Z,90.13
2022-12-24T18:06:43.083Z,89.67
2022-12-24T18:09:15.371Z,90.89
2022-12-24T18:11:43.513Z,90.61
2022-12-24T18:14:13.993Z,91.14
2022-12-24T18:16:44.005Z,91.61
2022-12-24T18:19:13.465Z,91.63
2022-12-24T18:21:42.019Z,92.32
2022-12-24T18:24:11.236Z,92.71
2022-12-24T18:26:39.413Z,93.07
2022-12-24T18:29:08.821Z,92.94
2022-12-24T18:31:37.368Z,93.25
2022-12-24T18:34:09.528Z,93.01
2022-12-24T18:36:37.447Z,93.18
2022-12-24T18:39:06.521Z,93.42
2022-12-24T18:41:35.355Z,93.66
2022-12-24T18:44:03.194Z,93.18
2022-12-24T18:46:33.324Z,93.87
2022-12-24T18:49:02.278Z,93.87
2022-12-24T18:51:34.343Z,94.01
2022-12-24T18:54:03.440Z,93.97
2022-12-24T18:56:32.382Z,93.76
2022-12-24T18:59:02.782Z,94.13
2022-12-24T19:01:32.228Z,94.27
2022-12-24T19:04:00.685Z,93.86
2022-12-24T19:06:29.024Z,93.99
2022-12-24T19:09:00.409Z,94.06
2022-12-24T19:11:31.453Z,93.89
2022-12-24T19:13:59.923Z,94.33
2022-12-24T19:16:28.543Z,94.34
2022-12-24T19:18:56.428Z,94.37
2022-12-24T19:21:27.034Z,94.91
2022-12-24T19:23:55.313Z,94.29
2022-12-24T19:26:24.938Z,94.77
2022-12-24T19:28:53.122Z,94.48
2022-12-24T19:31:22.759Z,94.62
2022-12-24T19:33:52.873Z,94.54
2022-12-24T19:36:22.909Z,94.67
2022-12-24T19:38:50.797Z,94.99
2022-12-24T19:41:20.622Z,94.20
2022-12-24T19:43:52.060Z,94.52
2022-12-24T19:46:21.934Z,94.33
2022-12-24T19:48:51.179Z,94.85
2022-12-24T19:51:19.687Z,94.34
2022-12-24T19:53:48.602Z,94.53
2022-12-24T19:56:17.907Z,94.32
2022-12-24T19:58:46.300Z,94.52
2022-12-24T20:01:17.781Z,94.78
2022-12-24T20:03:47.213Z,94.34
2022-12-24T20:06:16.011Z,94.51
2022-12-24T20:08:43.912Z,93.85
2022-12-24T20:11:14.615Z,94.54
2022-12-24T20:13:43.278Z,94.83
2022-12-24T20:16:13.126Z,94.83
2022-12-24T20:18:42.384Z,94.77
2022-12-24T20:21:12.339Z,95.36
2022-12-24T20:23:41.292Z,95.06
2022-12-24T20:26:13.030Z,95.05
2022-12-24T20:28:41.659Z,95.40
2022-12-24T20:31:14.499Z,95.55
2022-12-24T20:33:45.440Z,96.56
2022-12-24T20:36:15.842Z,96.92
2022-12-24T20:38:44.160Z,98.10
2022-12-24T20:41:13.970Z,97.94
2022-12-24T20:43:47.722Z,98.64
2022-12-24T20:46:17.149Z,98.87
2022-12-24T20:48:46.689Z,99.83
2022-12-24T20:51:23.233Z,98.57
2022-12-24T20:53:51.651Z,99.94
2022-12-24T20:56:19.695Z,100.00
2022-12-24T20:58:47.821Z,100.00
2022-12-24T21:01:18.538Z,100.00
2022-12-24T21:03:48.165Z,100.00
2022-12-24T21:06:17.919Z,100.00
2022-12-24T21:08:46.351Z,100.00
2022-12-24T21:11:28.163Z,100.00
2022-12-24T21:13:56.029Z,100.00
2022-12-24T21:16:23.986Z,100.00
2022-12-24T21:18:53.302Z,100.00
2022-12-24T21:21:21.211Z,100.00
2022-12-24T21:23:49.086Z,100.00
2022-12-24T21:26:16.879Z,100.00
2022-12-24T21:28:45.524Z,100.00
2022-12-24T21:31:15.208Z,100.00
2022-12-24T21:33:43.840Z,100.00
2022-12-24T21:36:14.966Z,100.00
2022-12-24T21:38:43.641Z,100.00
2022-12-24T21:41:15.684Z,100.00
2022-12-24T21:43:44.468Z,100.00
2022-12-24T21:46:14.815Z,100.00
2022-12-24T21:49:00.365Z,100.00
2022-12-24T21:51:29.791Z,100.00
2022-12-24T21:54:16.223Z,100.00
2022-12-24T21:57:01.992Z,100.00
2022-12-24T21:59:30.110Z,100.00
2022-12-24T22:01:58.683Z,100.00
2022-12-24T22:04:26.839Z,100.00
2022-12-24T22:07:13.404Z,100.00
2022-12-24T22:09:59.145Z,100.00
2022-12-24T22:12:30.892Z,100.00
2022-12-24T22:14:58.861Z,100.00
2022-12-24T22:17:27.398Z,100.00
2022-12-24T22:19:55.589Z,100.00
2022-12-24T22:22:25.313Z,100.00
2022-12-24T22:24:53.172Z,100.00
2022-12-24T22:27:21.022Z,100.00
2022-12-24T22:29:48.836Z,100.00
2022-12-24T22:32:16.646Z,100.00
2022-12-24T22:34:44.879Z,100.00
2022-12-24T22:37:13.148Z,100.00
2022-12-24T22:39:42.415Z,100.00
2022-12-24T22:42:10.365Z,100.00
2022-12-24T22:44:38.244Z,100.00
2022-12-24T22:47:06.248Z,100.00
2022-12-24T22:49:36.042Z,100.00
2022-12-24T22:52:04.401Z,100.00
2022-12-24T22:54:32.959Z,100.00
2022-12-24T22:57:02.322Z,100.00
2022-12-24T22:59:30.167Z,100.00
2022-12-24T23:01:58.234Z,100.00
2022-12-24T23:04:27.066Z,100.00
2022-12-24T23:06:55.032Z,100.00
2022-12-24T23:09:22.989Z,100.00
2022-12-24T23:11:50.960Z,100.00
2022-12-24T23:14:39.023Z,100.00
2022-12-24T23:17:07.320Z,100.00
2022-12-24T23:19:35.894Z,100.00
2022-12-24T23:22:04.865Z,100.00
2022-12-24T23:24:33.300Z,100.00
2022-12-24T23:27:02.435Z,100.00
2022-12-24T23:29:33.147Z,100.00
2022-12-24T23:32:01.376Z,100.00
2022-12-24T23:34:29.200Z,100.00
2022-12-24T23:36:57.089Z,100.00
2022-12-24T23:39:25.120Z,100.00
2022-12-24T23:41:52.985Z,100.00
2022-12-24T23:44:24.104Z,100.00
2022-12-24T23:46:56.038Z,100.00
2022-12-24T23:49:23.894Z,100.00
2022-12-24T23:51:51.765Z,100.00
2022-12-24T23:54:19.632Z,100.00
2022-12-24T23:56:47.516Z,100.00
2022-12-24T23:59:15.346Z,100.00
